Time;durP1;ratioP1;P1;durP2;ratioP2;P2;SDS_P1;SDS_P2;PMS_P1;PMS_P2;Temp;Humidity;BMP_temperature;BMP_pressure;BME280_temperature;BME280_humidity;BME280_pressure;Samples;Min_cycle;Max_cycle;Signal;HPM_P1;HPM_P2
2024/04/16 00:00:50;;;;;;;4.07;2.70;;;6.40;99.90;;;;;;5349263;26;20456;-70
2024/04/16 00:03:20;;;;;;;4.83;2.60;;;6.40;99.90;;;;;;5347537;26;20468;-69
2024/04/16 00:05:50;;;;;;;3.07;2.20;;;6.40;99.90;;;;;;5349267;26;20521;-70
2024/04/16 00:08:18;;;;;;;4.10;2.60;;;6.40;99.90;;;;;;5347824;26;20456;-69
2024/04/16 00:10:48;;;;;;;3.00;2.30;;;6.40;99.90;;;;;;5349170;26;20461;-69
2024/04/16 00:13:16;;;;;;;2.50;2.30;;;6.50;99.90;;;;;;5349736;26;20503;-69
2024/04/16 00:16:16;;;;;;;3.50;2.50;;;6.40;99.90;;;;;;5340927;26;20459;-69
2024/04/16 00:18:46;;;;;;;3.83;2.63;;;6.40;99.90;;;;;;5347359;26;21070;-69
2024/04/16 00:21:16;;;;;;;3.30;2.30;;;6.40;99.90;;;;;;5347142;26;20580;-69
2024/04/16 00:23:43;;;;;;;4.63;2.27;;;6.40;99.90;;;;;;5346776;26;20550;-70
2024/04/16 00:26:13;;;;;;;3.70;2.07;;;6.40;99.90;;;;;;5349074;26;20451;-69
2024/04/16 00:28:41;;;;;;;3.20;1.80;;;6.40;99.90;;;;;;5349335;26;20453;-69
2024/04/16 00:31:11;;;;;;;6.50;2.30;;;6.40;99.90;;;;;;5349649;26;20500;-70
2024/04/16 00:33:38;;;;;;;3.77;1.73;;;6.40;99.90;;;;;;5350160;26;20453;-69
2024/04/16 00:36:11;;;;;;;3.03;2.03;;;6.40;99.90;;;;;;5349959;26;21036;-69
2024/04/16 00:38:38;;;;;;;3.27;1.80;;;6.40;99.90;;;;;;5351054;26;20397;-70
2024/04/16 00:41:08;;;;;;;3.23;2.20;;;6.40;99.90;;;;;;5347047;26;20477;-70
2024/04/16 00:43:36;;;;;;;5.03;2.27;;;6.40;99.90;;;;;;5348800;26;20434;-69
2024/04/16 00:46:07;;;;;;;2.70;2.07;;;6.40;99.90;;;;;;5348796;26;20446;-69
2024/04/16 00:48:35;;;;;;;4.17;2.53;;;6.40;99.90;;;;;;5349469;26;20436;-70
2024/04/16 00:51:06;;;;;;;2.67;2.20;;;6.40;99.90;;;;;;5348535;26;20496;-69
2024/04/16 00:53:37;;;;;;;3.27;2.43;;;6.40;99.90;;;;;;5346895;26;20455;-69
2024/04/16 00:56:08;;;;;;;3.43;2.20;;;6.50;99.90;;;;;;5349835;26;20397;-69
2024/04/16 00:58:39;;;;;;;3.97;2.30;;;6.50;99.90;;;;;;5349008;26;20860;-70
2024/04/16 01:01:10;;;;;;;3.90;3.13;;;6.50;99.90;;;;;;5349865;26;21021;-69
2024/04/16 01:03:37;;;;;;;3.30;2.30;;;6.40;99.90;;;;;;5349824;26;20397;-71
2024/04/16 01:06:08;;;;;;;3.00;2.47;;;6.50;99.90;;;;;;5346753;26;20513;-69
2024/04/16 01:08:38;;;;;;;4.17;2.33;;;6.50;99.90;;;;;;5349022;26;20444;-69
2024/04/16 01:11:08;;;;;;;3.70;2.00;;;6.50;99.90;;;;;;5346675;26;20516;-69
2024/04/16 01:13:35;;;;;;;2.43;2.23;;;6.50;99.90;;;;;;5348460;26;20449;-69
2024/04/16 01:16:06;;;;;;;2.20;1.93;;;6.50;99.90;;;;;;5346659;26;20946;-69
2024/04/16 01:18:33;;;;;;;3.27;2.17;;;6.40;99.90;;;;;;5350351;26;20931;-69
2024/04/16 01:21:03;;;;;;;3.30;1.93;;;6.50;99.90;;;;;;5350562;26;20512;-69
2024/04/16 01:23:33;;;;;;;2.80;2.30;;;6.50;99.90;;;;;;5348462;26;20476;-69
2024/04/16 01:26:03;;;;;;;2.40;2.00;;;6.50;99.90;;;;;;5348319;26;20749;-69
2024/04/16 01:28:31;;;;;;;2.23;2.03;;;6.50;99.90;;;;;;5348652;26;20460;-69
2024/04/16 01:31:01;;;;;;;2.50;1.60;;;6.50;99.90;;;;;;5348238;26;20924;-69
2024/04/16 01:33:28;;;;;;;3.13;2.30;;;6.50;99.90;;;;;;5347251;26;20923;-69
2024/04/16 01:35:59;;;;;;;5.57;2.33;;;6.50;99.90;;;;;;5348106;26;20587;-70
2024/04/16 01:38:26;;;;;;;2.30;1.83;;;6.50;99.90;;;;;;5349245;26;20440;-70
2024/04/16 01:40:59;;;;;;;3.60;2.30;;;6.50;99.90;;;;;;5347311;26;21071;-70
2024/04/16 01:43:26;;;;;;;3.03;2.53;;;6.50;99.90;;;;;;5346305;26;20502;-69
2024/04/16 01:45:56;;;;;;;3.97;2.77;;;6.50;99.90;;;;;;5348064;26;20510;-70
2024/04/16 01:48:24;;;;;;;4.53;2.80;;;6.50;99.90;;;;;;5346317;26;20800;-70
2024/04/16 01:50:54;;;;;;;3.43;3.13;;;6.50;99.90;;;;;;5347942;26;20456;-70
2024/04/16 01:53:21;;;;;;;3.83;3.40;;;6.50;99.90;;;;;;5346525;26;20452;-70
2024/04/16 01:55:51;;;;;;;5.30;4.20;;;6.50;99.90;;;;;;5348257;26;20981;-70
2024/04/16 01:58:21;;;;;;;5.70;3.50;;;6.50;99.90;;;;;;5347822;26;20460;-70
2024/04/16 02:00:51;;;;;;;4.07;3.53;;;6.40;99.90;;;;;;5347737;26;20509;-70
2024/04/16 02:03:19;;;;;;;4.03;3.40;;;6.50;99.90;;;;;;5347748;26;20444;-70
2024/04/16 02:05:49;;;;;;;5.00;4.03;;;6.50;99.90;;;;;;5347804;26;20442;-70
2024/04/16 02:08:16;;;;;;;3.80;3.40;;;6.50;99.90;;;;;;5347665;26;20443;-70
2024/04/16 02:10:53;;;;;;;3.90;3.00;;;6.50;99.90;;;;;;5347683;26;20823;-70
2024/04/16 02:13:24;;;;;;;4.47;2.70;;;6.50;99.90;;;;;;5345951;26;20455;-70
2024/04/16 02:15:55;;;;;;;3.20;2.10;;;6.40;99.90;;;;;;5349084;26;20408;-70
2024/04/16 02:18:22;;;;;;;2.23;1.70;;;6.40;99.90;;;;;;5345782;26;20500;-70
2024/04/16 02:20:53;;;;;;;2.23;1.40;;;6.40;99.90;;;;;;5347617;26;20505;-70
2024/04/16 02:23:20;;;;;;;4.43;1.90;;;6.40;99.90;;;;;;5345512;26;20472;-70
2024/04/16 02:25:52;;;;;;;4.40;2.10;;;6.40;99.90;;;;;;5345647;26;20497;-70
2024/04/16 02:28:19;;;;;;;2.17;1.97;;;6.40;99.90;;;;;;5347759;26;20803;-70
2024/04/16 02:30:52;;;;;;;2.87;2.60;;;6.40;99.90;;;;;;5347388;26;20502;-70
2024/04/16 02:33:20;;;;;;;2.20;1.60;;;6.40;99.90;;;;;;5349120;26;20945;-70
2024/04/16 02:35:50;;;;;;;2.20;1.57;;;6.40;99.90;;;;;;5347393;26;20500;-69
2024/04/16 02:38:18;;;;;;;2.43;1.50;;;6.40;99.90;;;;;;5347385;26;20436;-70
2024/04/16 02:40:48;;;;;;;1.60;1.13;;;6.30;99.90;;;;;;5345473;26;20827;-70
2024/04/16 02:43:15;;;;;;;1.80;1.13;;;6.40;99.90;;;;;;5347119;26;20885;-70
2024/04/16 02:45:45;;;;;;;4.03;1.50;;;6.40;99.90;;;;;;5344822;26;20457;-70
2024/04/16 02:48:15;;;;;;;1.90;1.10;;;6.40;99.90;;;;;;5347183;26;20457;-70
2024/04/16 02:50:45;;;;;;;2.50;1.37;;;6.40;99.90;;;;;;5345360;26;20553;-70
2024/04/16 02:53:12;;;;;;;2.60;1.60;;;6.40;99.90;;;;;;5347132;26;20779;-70
2024/04/16 02:55:42;;;;;;;2.37;1.43;;;6.40;99.90;;;;;;5347122;26;20459;-70
2024/04/16 02:58:10;;;;;;;2.50;2.10;;;6.40;99.90;;;;;;5346952;26;20444;-70
2024/04/16 03:00:40;;;;;;;2.70;2.40;;;6.30;99.90;;;;;;5346965;26;20468;-70
2024/04/16 03:03:10;;;;;;;2.70;2.30;;;6.30;99.90;;;;;;5345179;26;20532;-70
2024/04/16 03:05:43;;;;;;;2.30;1.97;;;6.30;99.90;;;;;;5347157;26;20451;-70
2024/04/16 03:08:10;;;;;;;2.87;2.30;;;6.30;99.90;;;;;;5345543;26;20620;-70
2024/04/16 03:10:41;;;;;;;3.27;2.83;;;6.40;99.90;;;;;;5346928;26;20460;-70
2024/04/16 03:13:08;;;;;;;5.53;3.13;;;6.30;99.90;;;;;;5348306;26;20400;-70
2024/04/16 03:15:38;;;;;;;3.03;2.73;;;6.30;99.90;;;;;;5346946;26;20559;-70
2024/04/16 03:18:06;;;;;;;3.43;2.33;;;6.40;99.90;;;;;;5346786;26;20442;-70
2024/04/16 03:20:36;;;;;;;3.30;3.00;;;6.30;99.90;;;;;;5346851;26;20990;-70
2024/04/16 03:23:06;;;;;;;3.60;3.07;;;6.30;99.90;;;;;;5346531;26;20489;-70
2024/04/16 03:25:42;;;;;;;2.87;2.67;;;6.30;99.90;;;;;;5347931;26;20498;-70
2024/04/16 03:28:10;;;;;;;3.30;2.80;;;6.30;99.90;;;;;;5344724;26;20964;-70
2024/04/16 03:30:40;;;;;;;2.63;2.17;;;6.30;99.90;;;;;;5346738;26;20460;-70
2024/04/16 03:33:07;;;;;;;2.90;2.37;;;6.30;99.90;;;;;;5346422;26;20602;-70
2024/04/16 03:35:37;;;;;;;5.13;3.30;;;6.20;99.90;;;;;;5346534;26;20531;-70
2024/04/16 03:38:10;;;;;;;2.83;2.20;;;6.20;99.90;;;;;;5346329;26;20449;-70
2024/04/16 03:40:40;;;;;;;3.37;2.83;;;6.20;99.90;;;;;;5347446;26;20522;-70
2024/04/16 03:43:10;;;;;;;3.63;3.23;;;6.10;99.90;;;;;;5346136;26;20795;-70
2024/04/16 03:45:37;;;;;;;3.33;2.87;;;6.10;99.90;;;;;;5344567;26;20463;-70
2024/04/16 03:48:08;;;;;;;3.67;3.13;;;6.10;99.90;;;;;;5346156;26;21049;-70
2024/04/16 03:50:35;;;;;;;4.13;3.37;;;6.10;99.90;;;;;;5347200;26;20448;-69
2024/04/16 03:53:07;;;;;;;3.67;3.07;;;6.10;99.90;;;;;;5346342;26;20444;-70
2024/04/16 03:55:37;;;;;;;3.60;3.20;;;6.10;99.90;;;;;;5347119;26;20443;-70
2024/04/16 03:58:07;;;;;;;4.70;3.07;;;6.10;99.90;;;;;;5349263;26;20840;-70
2024/04/16 04:03:23;;;;;;;3.60;3.00;;;6.00;99.90;;;;;;5350375;26;20434;-70
2024/04/16 04:05:54;;;;;;;3.43;3.13;;;6.00;99.90;;;;;;5347497;26;20456;-70
2024/04/16 04:08:21;;;;;;;4.87;3.10;;;6.00;99.90;;;;;;5350257;26;20482;-69
2024/04/16 04:10:54;;;;;;;3.70;3.40;;;6.00;99.90;;;;;;5347471;26;20573;-70
2024/04/16 04:13:22;;;;;;;3.80;3.40;;;6.00;99.90;;;;;;5349814;26;20444;-70
2024/04/16 04:15:52;;;;;;;3.87;2.77;;;6.00;99.90;;;;;;5347434;26;20507;-70
2024/04/16 04:18:19;;;;;;;4.10;3.33;;;6.00;99.90;;;;;;5349475;26;20554;-70
2024/04/16 04:20:49;;;;;;;3.23;2.93;;;6.00;99.90;;;;;;5349268;26;20523;-70
2024/04/16 04:23:16;;;;;;;4.00;2.87;;;6.00;99.90;;;;;;5349017;26;20467;-70
2024/04/16 04:25:46;;;;;;;3.40;2.97;;;6.00;99.90;;;;;;5349216;26;20444;-70
2024/04/16 04:28:16;;;;;;;4.10;3.07;;;6.00;99.90;;;;;;5349095;26;20855;-70
2024/04/16 04:30:46;;;;;;;4.17;2.80;;;6.00;99.90;;;;;;5349079;26;20799;-70
2024/04/16 04:33:14;;;;;;;3.63;3.07;;;6.00;99.90;;;;;;5349088;26;21037;-70
2024/04/16 04:35:44;;;;;;;3.10;2.80;;;6.00;99.90;;;;;;5349047;26;20499;-70
2024/04/16 04:38:11;;;;;;;3.53;2.93;;;6.00;99.90;;;;;;5349067;26;20442;-70
2024/04/16 04:40:41;;;;;;;3.80;3.30;;;6.00;99.90;;;;;;5348855;26;20459;-70
2024/04/16 04:43:09;;;;;;;5.07;3.17;;;6.00;99.90;;;;;;5347163;26;20530;-70
2024/04/16 04:45:41;;;;;;;4.10;3.23;;;6.10;99.90;;;;;;5348797;26;20452;-70
2024/04/16 04:48:09;;;;;;;4.27;3.30;;;6.00;99.90;;;;;;5349228;26;20445;-70
2024/04/16 04:50:39;;;;;;;5.80;3.43;;;6.10;99.90;;;;;;5348898;26;20532;-70
2024/04/16 04:53:06;;;;;;;5.50;3.80;;;6.10;99.90;;;;;;5348722;26;20448;-70
2024/04/16 04:55:36;;;;;;;6.53;3.83;;;6.10;99.90;;;;;;5348850;26;20441;-70
2024/04/16 04:58:04;;;;;;;4.00;3.37;;;6.10;99.90;;;;;;5347023;26;20451;-70
2024/04/16 05:00:34;;;;;;;4.40;3.50;;;6.10;99.90;;;;;;5348680;26;21003;-70
2024/04/16 05:03:04;;;;;;;4.60;3.57;;;6.20;99.90;;;;;;5348702;26;20447;-70
2024/04/16 05:05:34;;;;;;;3.93;3.30;;;6.20;99.90;;;;;;5350776;26;21004;-69
2024/04/16 05:08:02;;;;;;;5.70;3.10;;;6.20;99.90;;;;;;5349369;26;20461;-70
2024/04/16 05:10:32;;;;;;;4.20;3.50;;;6.20;99.90;;;;;;5348900;26;20459;-69
2024/04/16 05:12:59;;;;;;;5.73;3.80;;;6.30;99.90;;;;;;5349040;26;20517;-69
2024/04/16 05:15:29;;;;;;;4.67;4.10;;;6.20;99.90;;;;;;5348841;26;20551;-70
2024/04/16 05:17:57;;;;;;;6.43;3.40;;;6.30;99.90;;;;;;5348978;26;20450;-70
2024/04/16 05:20:30;;;;;;;4.70;3.90;;;6.30;99.90;;;;;;5348642;26;20461;-70
2024/04/16 05:22:58;;;;;;;4.80;3.37;;;6.30;99.90;;;;;;5346889;26;20464;-71
2024/04/16 05:25:28;;;;;;;7.13;4.10;;;6.30;99.90;;;;;;5346732;26;20458;-70
2024/04/16 05:27:55;;;;;;;4.67;3.03;;;6.40;99.90;;;;;;5350336;26;20788;-70
2024/04/16 05:30:26;;;;;;;6.67;4.20;;;6.40;99.90;;;;;;5346910;26;20567;-70
2024/04/16 05:32:53;;;;;;;6.97;4.00;;;6.40;99.90;;;;;;5348609;26;20862;-70
2024/04/16 05:35:24;;;;;;;5.50;4.20;;;6.50;99.90;;;;;;5348628;26;20563;-70
2024/04/16 05:37:54;;;;;;;8.00;4.93;;;6.50;99.90;;;;;;5346964;26;20452;-70
2024/04/16 05:40:24;;;;;;;6.03;4.23;;;6.50;99.90;;;;;;5350339;26;20570;-70
2024/04/16 05:42:51;;;;;;;9.30;4.20;;;6.60;99.90;;;;;;5349826;26;20513;-70
2024/04/16 05:45:21;;;;;;;5.90;4.30;;;6.60;99.90;;;;;;5346723;26;20469;-70
2024/04/16 05:47:49;;;;;;;5.10;4.47;;;6.60;99.90;;;;;;5346871;26;20454;-70
2024/04/16 05:50:19;;;;;;;6.73;4.73;;;6.70;99.90;;;;;;5348667;26;20511;-70
2024/04/16 05:52:47;;;;;;;7.17;4.57;;;6.70;99.90;;;;;;5348371;26;20453;-70
2024/04/16 05:55:19;;;;;;;8.43;5.27;;;6.70;99.90;;;;;;5348461;26;20534;-70
2024/04/16 05:57:47;;;;;;;5.50;4.70;;;6.80;99.90;;;;;;5346681;26;20523;-70
2024/04/16 06:00:17;;;;;;;7.10;5.63;;;6.90;99.90;;;;;;5346304;26;20818;-70
2024/04/16 06:02:45;;;;;;;6.03;5.40;;;6.90;99.90;;;;;;5346766;26;20462;-70
2024/04/16 06:05:15;;;;;;;7.40;6.00;;;7.10;99.90;;;;;;5347993;26;20976;-70
2024/04/16 06:07:42;;;;;;;6.10;5.50;;;7.20;99.90;;;;;;5347883;26;20519;-71
2024/04/16 06:10:12;;;;;;;10.13;6.40;;;7.30;99.90;;;;;;5347824;26;20517;-70
2024/04/16 06:12:42;;;;;;;11.47;6.70;;;7.40;99.90;;;;;;5347973;26;20490;-71
2024/04/16 06:15:12;;;;;;;6.20;5.60;;;7.40;99.90;;;;;;5345952;26;20831;-70
2024/04/16 06:17:40;;;;;;;7.40;5.33;;;7.50;99.90;;;;;;5345845;26;20459;-71
2024/04/16 06:20:10;;;;;;;7.10;5.00;;;7.50;99.90;;;;;;5346713;26;20605;-70
2024/04/16 06:22:39;;;;;;;8.57;5.63;;;7.60;99.90;;;;;;5349167;26;20401;-70
2024/04/16 06:25:10;;;;;;;7.57;5.30;;;7.70;99.90;;;;;;5347794;26;20456;-70
2024/04/16 06:27:37;;;;;;;9.80;6.00;;;7.70;99.90;;;;;;5349299;26;20406;-71
2024/04/16 06:30:11;;;;;;;7.63;5.73;;;7.70;99.90;;;;;;5347594;26;20456;-71
2024/04/16 06:32:39;;;;;;;6.10;5.17;;;7.70;99.90;;;;;;5348967;26;20454;-70
2024/04/16 06:35:09;;;;;;;8.97;5.37;;;7.80;99.90;;;;;;5347538;26;20445;-70
2024/04/16 06:37:36;;;;;;;4.97;4.47;;;7.80;99.90;;;;;;5345446;26;20452;-70
2024/04/16 06:40:07;;;;;;;7.80;5.90;;;7.80;99.90;;;;;;5345500;26;20549;-71
2024/04/16 06:42:36;;;;;;;6.50;4.70;;;7.80;99.90;;;;;;5345632;26;20521;-70
2024/04/16 06:45:10;;;;;;;5.80;4.30;;;7.80;99.90;;;;;;5345335;26;20556;-70
2024/04/16 06:47:37;;;;;;;5.47;4.97;;;7.80;99.90;;;;;;5348689;26;20401;-70
2024/04/16 06:50:08;;;;;;;5.50;4.70;;;7.80;99.90;;;;;;5347110;26;20516;-71
2024/04/16 06:52:36;;;;;;;7.40;5.20;;;7.80;99.90;;;;;;5347805;26;20505;-71
2024/04/16 06:55:07;;;;;;;5.70;4.87;;;7.80;99.90;;;;;;5345403;26;20453;-70
2024/04/16 06:57:34;;;;;;;7.03;5.07;;;7.80;99.90;;;;;;5348428;26;20773;-71
2024/04/16 07:00:04;;;;;;;6.53;4.83;;;8.00;99.90;;;;;;5347049;26;20453;-70
2024/04/16 07:02:34;;;;;;;5.53;4.40;;;8.10;99.90;;;;;;5348296;26;20824;-70
2024/04/16 07:05:05;;;;;;;6.47;5.23;;;8.30;99.90;;;;;;5347094;26;20512;-70
2024/04/16 07:07:33;;;;;;;4.50;4.10;;;8.30;99.90;;;;;;5348084;26;20578;-70
2024/04/16 07:10:03;;;;;;;6.37;4.20;;;8.50;99.90;;;;;;5347129;26;20894;-71
2024/04/16 07:12:31;;;;;;;4.33;3.93;;;8.60;99.90;;;;;;5344954;26;20811;-72
2024/04/16 07:15:01;;;;;;;5.70;4.40;;;8.70;99.90;;;;;;5346798;26;20884;-71
2024/04/16 07:17:30;;;;;;;5.40;4.60;;;8.80;99.90;;;;;;5344934;26;20962;-71
2024/04/16 07:20:03;;;;;;;6.83;4.97;;;8.80;99.90;;;;;;5346770;26;20513;-71
2024/04/16 07:22:32;;;;;;;5.80;4.50;;;8.80;99.90;;;;;;5347885;26;20399;-71
2024/04/16 07:25:02;;;;;;;5.20;4.47;;;8.80;99.90;;;;;;5346663;26;21017;-71
2024/04/16 07:27:29;;;;;;;5.47;4.83;;;8.90;99.90;;;;;;5344650;26;20453;-71
2024/04/16 07:29:59;;;;;;;5.40;4.90;;;8.90;99.90;;;;;;5344831;26;20473;-70
2024/04/16 07:32:26;;;;;;;6.00;4.53;;;8.90;99.90;;;;;;5347692;26;20790;-71
2024/04/16 07:34:56;;;;;;;5.73;4.30;;;8.90;99.90;;;;;;5348048;26;20498;-71
2024/04/16 07:37:27;;;;;;;5.20;4.50;;;8.90;99.90;;;;;;5348044;26;20538;-71
2024/04/16 07:39:57;;;;;;;8.00;4.90;;;9.00;99.90;;;;;;5349597;26;20505;-70
2024/04/16 07:42:24;;;;;;;5.50;4.73;;;8.90;99.90;;;;;;5349755;26;20493;-71
2024/04/16 07:44:54;;;;;;;5.00;4.47;;;8.90;99.90;;;;;;5347859;26;20563;-71
2024/04/16 07:47:22;;;;;;;5.00;4.50;;;8.90;99.90;;;;;;5350550;26;20468;-70
2024/04/16 07:49:52;;;;;;;4.80;4.20;;;8.90;99.90;;;;;;5349604;26;20509;-71
2024/04/16 07:52:19;;;;;;;4.97;4.33;;;9.00;99.90;;;;;;5349865;26;20445;-71
2024/04/16 07:54:52;;;;;;;4.73;4.23;;;8.90;99.90;;;;;;5349677;26;20490;-70
2024/04/16 07:57:19;;;;;;;4.40;4.00;;;8.90;99.90;;;;;;5348941;26;20418;-70
2024/04/16 07:59:50;;;;;;;3.83;3.40;;;9.00;99.90;;;;;;5349743;26;20758;-70
2024/04/16 08:02:17;;;;;;;4.30;3.90;;;9.00;99.90;;;;;;5349761;26;20924;-70
2024/04/16 08:04:47;;;;;;;5.10;3.80;;;8.90;99.90;;;;;;5349577;26;20449;-71
2024/04/16 08:07:15;;;;;;;4.80;4.40;;;8.90;99.90;;;;;;5347900;26;21010;-71
2024/04/16 08:09:45;;;;;;;4.57;4.10;;;8.90;99.90;;;;;;5349672;26;20521;-71
2024/04/16 08:12:17;;;;;;;5.13;4.23;;;8.90;99.90;;;;;;5349458;26;20561;-70
2024/04/16 08:14:45;;;;;;;4.53;4.13;;;8.90;99.90;;;;;;5350496;26;20394;-70
2024/04/16 08:17:16;;;;;;;4.23;3.30;;;8.90;99.90;;;;;;5349286;26;20497;-71
2024/04/16 08:19:46;;;;;;;4.03;3.50;;;8.90;99.90;;;;;;5349785;26;20576;-71
2024/04/16 08:22:16;;;;;;;3.83;3.40;;;9.00;99.90;;;;;;5349814;26;21077;-70
2024/04/16 08:24:46;;;;;;;4.80;3.77;;;9.00;99.90;;;;;;5349359;26;20453;-70
2024/04/16 08:27:16;;;;;;;4.50;3.40;;;9.00;99.90;;;;;;5349050;26;20438;-71
2024/04/16 08:29:46;;;;;;;4.77;3.27;;;9.00;99.90;;;;;;5349049;26;20536;-71
2024/04/16 08:32:13;;;;;;;3.70;3.00;;;9.00;99.90;;;;;;5349056;26;20940;-71
2024/04/16 08:34:43;;;;;;;5.27;3.70;;;9.00;99.90;;;;;;5347212;26;20514;-71
2024/04/16 08:37:11;;;;;;;4.57;3.27;;;9.00;99.90;;;;;;5349035;26;20502;-71
2024/04/16 08:39:42;;;;;;;3.50;3.20;;;9.00;99.90;;;;;;5348992;26;20469;-71
2024/04/16 08:42:11;;;;;;;4.00;3.10;;;9.00;99.90;;;;;;5350116;26;20398;-70
2024/04/16 08:44:45;;;;;;;3.63;2.90;;;9.10;99.90;;;;;;5348385;26;20437;-71
2024/04/16 08:47:14;;;;;;;3.83;2.93;;;9.10;99.90;;;;;;5349278;26;20498;-71
2024/04/16 08:49:45;;;;;;;3.53;3.23;;;9.10;99.90;;;;;;5348767;26;20458;-71
2024/04/16 08:52:13;;;;;;;6.57;3.20;;;9.10;99.90;;;;;;5349993;26;20486;-71
2024/04/16 08:54:45;;;;;;;3.73;2.67;;;9.20;99.90;;;;;;5348807;26;20437;-72
2024/04/16 08:57:13;;;;;;;3.83;2.50;;;9.20;99.90;;;;;;5350729;26;20410;-71
2024/04/16 08:59:45;;;;;;;3.60;2.97;;;9.20;99.90;;;;;;5353622;26;21054;-70
2024/04/16 09:02:13;;;;;;;2.90;2.50;;;9.20;99.90;;;;;;5351519;26;20463;-70
2024/04/16 09:04:45;;;;;;;3.00;2.50;;;9.30;99.90;;;;;;5349545;26;20445;-71
2024/04/16 09:07:13;;;;;;;3.07;2.77;;;9.30;99.90;;;;;;5350729;26;20435;-70
2024/04/16 09:09:43;;;;;;;2.60;2.13;;;9.30;99.90;;;;;;5349203;26;20461;-71
2024/04/16 09:12:11;;;;;;;2.60;2.40;;;9.40;99.90;;;;;;5348671;26;20441;-70
2024/04/16 09:14:41;;;;;;;2.90;2.50;;;9.30;99.90;;;;;;5348619;26;20970;-71
2024/04/16 09:17:15;;;;;;;5.83;3.73;;;9.30;99.90;;;;;;5348544;26;20450;-70
2024/04/16 09:19:46;;;;;;;4.40;2.60;;;9.30;99.90;;;;;;5349421;26;20457;-71
2024/04/16 09:22:13;;;;;;;3.23;2.60;;;9.30;99.90;;;;;;5348375;26;20894;-71
2024/04/16 09:24:43;;;;;;;3.60;3.17;;;9.30;99.90;;;;;;5346700;26;20474;-71
2024/04/16 09:27:10;;;;;;;3.10;2.80;;;9.30;99.90;;;;;;5348292;26;20438;-71
2024/04/16 09:29:40;;;;;;;3.00;2.70;;;9.40;99.90;;;;;;5348272;26;20757;-71
2024/04/16 09:32:08;;;;;;;5.63;3.57;;;9.40;99.90;;;;;;5348193;26;20441;-71
2024/04/16 09:34:44;;;;;;;3.97;3.17;;;9.40;99.90;;;;;;5348127;26;20523;-71
2024/04/16 09:37:19;;;;;;;4.13;3.00;;;9.50;99.90;;;;;;5346936;26;20465;-71
2024/04/16 09:39:50;;;;;;;4.10;3.20;;;9.50;99.90;;;;;;5353521;26;20461;-71
2024/04/16 09:42:18;;;;;;;3.80;3.50;;;9.60;99.90;;;;;;5355083;26;20395;-71
2024/04/16 09:44:53;;;;;;;3.20;2.90;;;9.60;99.90;;;;;;5350128;26;20449;-71
2024/04/16 09:47:22;;;;;;;3.13;2.83;;;9.60;99.90;;;;;;5352396;26;20398;-71
2024/04/16 09:49:56;;;;;;;4.50;3.40;;;9.70;99.90;;;;;;5349012;26;20458;-71
2024/04/16 09:52:29;;;;;;;3.63;3.33;;;9.80;99.90;;;;;;5350190;26;20494;-71
2024/04/16 09:55:03;;;;;;;4.30;3.50;;;9.80;99.90;;;;;;5347499;26;20509;-71
2024/04/16 09:57:32;;;;;;;6.13;5.63;;;9.90;99.90;;;;;;5350312;26;20434;-71
2024/04/16 10:00:04;;;;;;;4.60;3.53;;;10.00;99.90;;;;;;5348466;26;20458;-71
2024/04/16 10:02:33;;;;;;;4.10;3.80;;;10.00;99.90;;;;;;5349411;26;20430;-71
2024/04/16 10:05:06;;;;;;;3.53;3.23;;;10.00;99.90;;;;;;5347895;26;20790;-71
2024/04/16 10:07:34;;;;;;;4.27;3.87;;;10.10;99.90;;;;;;5349337;26;20435;-71
2024/04/16 10:10:04;;;;;;;3.17;2.93;;;10.10;99.90;;;;;;5345957;26;20473;-71
2024/04/16 10:12:32;;;;;;;4.83;3.40;;;10.10;99.90;;;;;;5347774;26;20445;-71
2024/04/16 10:15:03;;;;;;;3.47;3.17;;;10.20;99.90;;;;;;5345855;26;20493;-71
2024/04/16 10:17:34;;;;;;;3.70;3.40;;;10.20;99.90;;;;;;5348533;26;20453;-71
2024/04/16 10:20:15;;;;;;;3.90;3.50;;;10.30;99.90;;;;;;5348866;26;20529;-71
2024/04/16 10:22:53;;;;;;;4.30;3.90;;;10.30;99.90;;;;;;5348998;26;20394;-71
2024/04/16 10:25:26;;;;;;;4.50;4.10;;;10.40;99.90;;;;;;5349173;26;20772;-71
2024/04/16 10:27:59;;;;;;;4.00;3.70;;;10.40;99.90;;;;;;5348706;26;20410;-71
2024/04/16 10:30:30;;;;;;;3.70;3.40;;;10.50;99.90;;;;;;5348719;26;20445;-71
2024/04/16 10:33:01;;;;;;;3.70;3.40;;;10.50;99.90;;;;;;5345716;26;20702;-71
2024/04/16 10:35:33;;;;;;;3.90;3.27;;;10.60;99.90;;;;;;5345533;26;20242;-71
2024/04/16 10:38:04;;;;;;;3.30;3.00;;;10.70;99.90;;;;;;5349027;26;20470;-71
2024/04/16 10:40:34;;;;;;;3.13;2.87;;;10.70;99.90;;;;;;5348593;26;20494;-71
2024/04/16 10:43:05;;;;;;;4.83;3.37;;;10.70;99.90;;;;;;5347457;26;20446;-71
2024/04/16 10:45:33;;;;;;;3.97;3.50;;;10.70;99.90;;;;;;5347398;26;20442;-71
2024/04/16 10:48:04;;;;;;;4.23;3.93;;;10.80;99.90;;;;;;5347326;26;20437;-71
2024/04/16 10:50:38;;;;;;;4.30;3.50;;;10.80;99.90;;;;;;5348481;26;20857;-71
2024/04/16 10:53:13;;;;;;;3.37;3.07;;;10.80;99.90;;;;;;5347650;26;20438;-71
2024/04/16 10:55:41;;;;;;;6.27;4.17;;;10.80;99.90;;;;;;5348269;26;20438;-71
2024/04/16 10:58:13;;;;;;;4.90;4.50;;;10.90;99.90;;;;;;5347021;26;20496;-71
2024/04/16 11:00:41;;;;;;;4.80;4.40;;;10.90;99.90;;;;;;5348107;26;20793;-71
2024/04/16 11:03:12;;;;;;;6.30;5.70;;;10.90;99.90;;;;;;5347000;26;20833;-71
2024/04/16 11:05:42;;;;;;;6.60;6.10;;;10.90;99.90;;;;;;5348824;26;20737;-71
2024/04/16 11:08:13;;;;;;;7.00;6.33;;;10.90;99.90;;;;;;5349910;26;20504;-71
2024/04/16 11:10:43;;;;;;;8.13;7.43;;;10.90;99.90;;;;;;5350442;26;20615;-71
2024/04/16 11:13:13;;;;;;;7.80;6.80;;;10.90;99.90;;;;;;5349981;26;20600;-71
2024/04/16 11:15:41;;;;;;;8.03;7.33;;;10.90;99.90;;;;;;5350856;26;20526;-71
2024/04/16 11:18:11;;;;;;;8.13;7.00;;;10.80;99.90;;;;;;5348172;26;20454;-71
2024/04/16 11:20:39;;;;;;;5.83;5.33;;;10.80;99.90;;;;;;5350949;26;21065;-71
2024/04/16 11:23:12;;;;;;;5.33;4.93;;;10.90;99.90;;;;;;5349944;26;20437;-71
2024/04/16 11:25:44;;;;;;;4.43;4.03;;;10.90;99.90;;;;;;5350956;26;21020;-71
2024/04/16 11:28:16;;;;;;;3.53;3.23;;;10.90;99.90;;;;;;5348071;26;20486;-71
2024/04/16 11:30:53;;;;;;;3.70;3.40;;;11.00;99.90;;;;;;5350746;26;20549;-71
2024/04/16 11:33:23;;;;;;;3.57;3.27;;;11.00;99.90;;;;;;5350831;26;20445;-71
2024/04/16 11:36:03;;;;;;;3.10;2.90;;;11.10;99.90;;;;;;5350435;26;20437;-71
2024/04/16 11:38:38;;;;;;;2.70;2.37;;;11.10;99.90;;;;;;5349887;26;20445;-71
2024/04/16 11:41:07;;;;;;;4.13;2.80;;;11.10;99.90;;;;;;5350751;26;20834;-71
2024/04/16 11:43:42;;;;;;;2.90;2.70;;;11.20;99.90;;;;;;5347972;26;20465;-71
2024/04/16 11:46:12;;;;;;;2.83;2.53;;;11.20;99.90;;;;;;5349754;26;20453;-71
2024/04/16 11:48:43;;;;;;;2.27;2.07;;;11.20;99.90;;;;;;5349636;26;20449;-71
2024/04/16 11:51:11;;;;;;;3.70;2.20;;;11.30;99.90;;;;;;5350572;26;20806;-71
2024/04/16 11:53:45;;;;;;;2.27;1.93;;;11.30;99.90;;;;;;5349618;26;20449;-71
2024/04/16 11:56:12;;;;;;;2.30;1.80;;;11.30;99.90;;;;;;5350493;26;20918;-71
2024/04/16 11:58:42;;;;;;;2.40;1.80;;;11.40;99.90;;;;;;5349867;26;20457;-71
2024/04/16 12:01:10;;;;;;;3.47;1.60;;;11.40;99.90;;;;;;5350256;26;20504;-71
2024/04/16 12:03:41;;;;;;;2.50;1.77;;;11.40;99.90;;;;;;5347972;26;20440;-71
2024/04/16 12:06:08;;;;;;;2.37;1.60;;;11.50;99.90;;;;;;5349590;26;20493;-71
2024/04/16 12:08:38;;;;;;;2.40;2.00;;;11.60;99.90;;;;;;5349654;26;20441;-71
2024/04/16 12:11:08;;;;;;;3.00;2.60;;;11.60;99.90;;;;;;5349293;26;20466;-71
2024/04/16 12:13:39;;;;;;;3.17;2.20;;;11.60;99.90;;;;;;5347650;26;20457;-71
2024/04/16 12:16:07;;;;;;;2.27;1.67;;;11.70;99.90;;;;;;5350404;26;20497;-71
2024/04/16 12:18:37;;;;;;;2.37;2.17;;;11.70;99.90;;;;;;5346576;26;20505;-71
2024/04/16 12:21:05;;;;;;;2.73;2.30;;;11.70;99.90;;;;;;5349257;26;20457;-71
2024/04/16 12:23:35;;;;;;;3.90;2.10;;;11.70;99.90;;;;;;5347156;26;20583;-71
2024/04/16 12:26:02;;;;;;;2.90;2.13;;;11.70;99.90;;;;;;5349013;26;20461;-71
2024/04/16 12:28:35;;;;;;;2.77;2.20;;;11.70;99.90;;;;;;5347068;26;20462;-71
2024/04/16 12:31:02;;;;;;;2.73;2.03;;;11.70;99.90;;;;;;5349944;26;20506;-71
2024/04/16 12:33:32;;;;;;;2.63;1.80;;;11.70;99.90;;;;;;5348992;26;20498;-71
2024/04/16 12:36:00;;;;;;;2.17;1.77;;;11.80;99.90;;;;;;5350271;26;20915;-71
2024/04/16 12:38:31;;;;;;;2.63;1.60;;;11.90;99.90;;;;;;5348791;26;20442;-71
2024/04/16 12:40:59;;;;;;;2.60;1.43;;;11.90;99.90;;;;;;5349785;26;20525;-71
2024/04/16 12:43:30;;;;;;;1.70;1.33;;;12.00;99.90;;;;;;5348865;26;20863;-71
2024/04/16 12:46:01;;;;;;;1.70;1.20;;;12.10;99.90;;;;;;5349951;26;20986;-71
2024/04/16 12:48:31;;;;;;;1.70;1.30;;;12.10;99.90;;;;;;5351168;26;20421;-72
2024/04/16 12:50:59;;;;;;;2.90;1.40;;;12.10;99.90;;;;;;5354901;26;21000;-71
2024/04/16 12:53:30;;;;;;;1.87;1.50;;;12.10;99.90;;;;;;5350474;26;20971;-71
2024/04/16 12:55:59;;;;;;;2.10;1.40;;;12.20;99.90;;;;;;5350974;26;20927;-71
2024/04/16 12:58:29;;;;;;;1.70;1.10;;;12.30;99.90;;;;;;5349599;26;20494;-71
2024/04/16 13:00:57;;;;;;;2.47;1.70;;;12.30;99.90;;;;;;5349002;26;20494;-71
2024/04/16 13:03:29;;;;;;;2.13;1.10;;;12.40;99.90;;;;;;5349143;26;20504;-71
2024/04/16 13:05:57;;;;;;;2.80;1.10;;;12.40;99.90;;;;;;5349853;26;20780;-72
2024/04/16 13:08:27;;;;;;;2.00;1.33;;;12.40;99.90;;;;;;5348546;26;20498;-72
2024/04/16 13:10:54;;;;;;;1.80;1.43;;;12.40;99.90;;;;;;5346629;26;20550;-72